Ana Sayfa
METAR-TAF:

METAR-TAF

Havaalanları :

Okaukuejo, Namibya

Enlem: 19-09-00S, Boylam: 15-55-00E, yükseklik: 1103 m

Güncel hava durumu gözlemi

Rapor saat 11:00 UTC de 1 saat ve 16 dakika önce yapıldı.
Rüzgar kuzeydoğudan 4 kt
Sıcaklık 32°C
Nem 34%
Basınç 1018 hPa

METAR: FYOO 181100Z AUTO 04004KT //// // ////// 32/14 Q1018

Saat: 13:16 (12:16 UTC)


TAF: eksik

4.000'den fazla havaalanı için hava durumu gözlemleri ve tahminleri (METAR ve TAF raporları).

Kullanılabilir istasyonlar harita üzerinde sarı ve kırmızı noktalarla gösterilir.

İstasyonun adını görmek için fareyi noktanın üzerinde gezdirin.

Sonrasında hava gözlem ve tahminlerini görmek için tıklayın.

Haritayı değiştirmek için: yaklaştırmak için siyah artı işaretli yeşil düğmeye ve uzaklaştırmak için de eksi işaretli düğmeye hızla tıklayın; bitişik haritalar için yeşil okları kullanın.


METAR-TAF: